Data for 09/29/2014

Time Sea-Level Adjusted Pressure Absolute Pressure Temperature Relative Humidity Dew Point   
(mb) (inHg) (mb) (inHg) (C) (F) (%) (C) (F)
00:05 1020 30.12 849 25.07 6.7 44 82 3.8 38.8
00:10 1019 30.09 849 25.07 6.7 44 82 3.8 38.9
00:15 1019 30.09 849 25.07 6.7 44.1 82 3.9 39
00:20 1019 30.09 848 25.04 6.7 44 82 3.8 38.9
00:25 1019 30.09 849 25.07 6.7 44.1 82 3.8 38.8
00:30 1019 30.09 849 25.07 6.7 44.1 81 3.7 38.7
00:35 1019 30.09 849 25.07 6.7 44.1 81 3.7 38.6
00:40 1019 30.09 848 25.04 6.7 44.1 81 3.7 38.6
00:45 1019 30.09 848 25.04 6.7 44.1 81 3.6 38.5
00:50 1019 30.09 848 25.04 6.7 44.1 81 3.7 38.7
00:55 1019 30.09 848 25.04 6.6 43.9 81 3.7 38.6
01:00 1019 30.09 848 25.04 6.6 43.9 81 3.6 38.5
01:05 1019 30.09 848 25.04 6.5 43.8 81 3.5 38.3
01:10 1019 30.09 848 25.04 6.5 43.8 80 3.4 38.2
01:15 1019 30.09 848 25.04 6.6 43.8 80 3.3 37.9
01:20 1019 30.09 848 25.04 6.6 43.9 80 3.4 38
01:25 1019 30.09 848 25.04 6.6 43.9 80 3.4 38.1
01:30 1019 30.09 848 25.04 6.6 43.9 80 3.4 38
01:35 1019 30.09 848 25.04 6.6 43.9 80 3.4 38.1
01:40 1019 30.09 848 25.04 6.7 44 80 3.4 38.1
01:45 1018 30.06 848 25.04 6.6 44 80 3.5 38.3
01:50 1018 30.06 848 25.04 6.6 43.8 80 3.4 38.1
01:55 1018 30.06 847 25.01 6.6 43.9 80 3.4 38.1
02:00 1018 30.06 847 25.01 6.6 44 80 3.4 38.2
02:05 1018 30.06 847 25.01 6.5 43.7 81 3.5 38.2
02:10 1018 30.06 847 25.01 6.5 43.6 81 3.5 38.2
02:15 1018 30.06 848 25.04 6.4 43.6 81 3.4 38.2
02:20 1018 30.06 848 25.04 6.4 43.5 81 3.4 38.1
02:25 1018 30.06 848 25.04 6.4 43.6 81 3.3 38
02:30 1019 30.09 848 25.04 6.5 43.8 80 3.3 38
02:35 1019 30.09 848 25.04 6.6 43.9 80 3.3 38
02:40 1019 30.09 848 25.04 6.6 43.9 79 3.3 37.9
02:45 1019 30.09 848 25.04 6.6 43.9 79 3.2 37.7
02:50 1019 30.09 848 25.04 6.7 44.1 79 3.3 37.9
02:55 1018 30.06 848 25.04 6.7 44 79 3.3 37.9
03:00 1019 30.09 848 25.04 6.6 44 79 3.2 37.8
03:05 1019 30.09 848 25.04 6.7 44 79 3.3 37.9
03:10 1019 30.09 848 25.04 6.7 44 80 3.4 38.1
03:15 1019 30.09 848 25.04 6.6 43.9 80 3.4 38.2
03:20 1019 30.09 848 25.04 6.6 43.8 80 3.4 38.1
03:25 1018 30.06 848 25.04 6.7 44 79 3.3 38
03:30 1018 30.06 848 25.04 6.7 44 79 3.4 38.1
03:35 1018 30.06 848 25.04 6.7 44.1 78 3.3 37.9
03:40 1018 30.06 847 25.01 6.9 44.3 77 3.1 37.7
03:45 1018 30.06 847 25.01 7 44.5 76 3.1 37.6
03:50 1018 30.06 847 25.01 7 44.6 76 3 37.4
03:55 1018 30.06 847 25.01 7.2 44.9 75 3 37.4
04:00 1018 30.06 847 25.01 7.2 44.9 75 3.1 37.6
04:05 1018 30.06 847 25.01 7.1 44.7 76 3.2 37.7
04:10 1018 30.06 847 25.01 7.1 44.7 76 3.2 37.7
04:15 1018 30.06 847 25.01 7.1 44.8 77 3.3 37.9
04:20 1018 30.06 847 25.01 7 44.6 77 3.3 37.9
04:25 1018 30.06 847 25.01 7 44.6 76 3.1 37.6
04:30 1018 30.06 847 25.01 7 44.7 76 3.1 37.6
04:35 1018 30.06 847 25.01 7.1 44.7 76 3.1 37.7
04:40 1018 30.06 847 25.01 7 44.6 76 3.1 37.6
04:45 1018 30.06 847 25.01 6.9 44.5 76 3.1 37.6
04:50 1018 30.06 847 25.01 6.9 44.4 76 3 37.5
04:55 1018 30.06 847 25.01 6.8 44.3 77 3.1 37.6
05:00 1018 30.06 847 25.01 6.7 44.1 78 3.1 37.6
05:05 1017 30.03 846 24.98 6.7 44.1 77 3.1 37.5
05:10 1017 30.03 846 24.98 6.8 44.2 77 3 37.5
05:15 1017 30.03 846 24.98 6.8 44.2 76 2.9 37.3
05:20 1017 30.03 847 25.01 6.8 44.3 76 3 37.3
05:25 1017 30.03 846 24.98 6.9 44.4 76 3 37.4
05:30 1017 30.03 846 24.98 6.9 44.4 76 3 37.3
05:35 1017 30.03 846 24.98 6.9 44.5 76 3 37.4
05:40 1017 30.03 846 24.98 6.9 44.4 77 3.1 37.6
05:45 1017 30.03 846 24.98 6.8 44.3 77 3 37.5
05:50 1017 30.03 847 25.01 6.9 44.4 77 3.1 37.6
05:55 1017 30.03 847 25.01 6.9 44.5 76 3.1 37.5
06:00 1017 30.03 846 24.98 7 44.5 76 3 37.4
06:05 1017 30.03 847 25.01 7 44.6 75 2.9 37.2
06:10 1017 30.03 847 25.01 7.1 44.7 74 2.8 37.1
06:15 1017 30.03 846 24.98 7 44.7 75 2.8 37.1
06:20 1017 30.03 846 24.98 7 44.6 76 3 37.4
06:25 1017 30.03 846 24.98 6.9 44.4 76 3 37.5
06:30 1017 30.03 846 24.98 6.8 44.3 77 3 37.5
06:35 1017 30.03 846 24.98 6.8 44.3 77 3.1 37.5
06:40 1017 30.03 846 24.98 6.9 44.4 76 3.1 37.5
06:45 1017 30.03 846 24.98 7 44.5 76 3 37.4
06:50 1017 30.03 846 24.98 7 44.7 76 3.1 37.6
06:55 1017 30.03 846 24.98 7 44.6 75 3 37.3
07:00 1017 30.03 846 24.98 7.2 44.9 75 3 37.4
07:05 1017 30.03 846 24.98 7.3 45.1 75 3.1 37.5
07:10 1017 30.03 846 24.98 7.3 45.1 75 3.1 37.5
07:15 1017 30.03 846 24.98 7.2 45 75 3.1 37.5
07:20 1017 30.03 846 24.98 7.2 45 75 3 37.5
07:25 1017 30.03 846 24.98 7.3 45.1 75 3.1 37.6
07:30 1017 30.03 846 24.98 7.3 45.1 75 3.2 37.7
07:35 1017 30.03 846 24.98 7.2 45 76 3.2 37.8
07:40 1017 30.03 846 24.98 7.2 45 76 3.2 37.8
07:45 1017 30.03 846 24.98 7.2 45 75 3.2 37.7
07:50 1017 30.03 846 24.98 7.2 45 75 3.2 37.7
07:55 1017 30.03 846 24.98 7.2 45 76 3.3 37.9
08:00 1017 30.03 846 24.98 7.3 45.1 76 3.4 38
08:05 1017 30.03 846 24.98 7.3 45.1 76 3.4 38.1
08:10 1017 30.03 846 24.98 7.4 45.2 76 3.4 38.1
08:15 1017 30.03 846 24.98 7.4 45.4 76 3.5 38.4
08:20 1017 30.03 846 24.98 7.6 45.6 75 3.5 38.2
08:25 1017 30.03 846 24.98 7.7 45.8 75 3.6 38.4
08:30 1017 30.03 846 24.98 7.8 46.1 74 3.6 38.4
08:35 1017 30.03 846 24.98 8 46.5 76 4.1 39.4
08:40 1017 30.03 846 24.98 7.6 45.6 79 4.2 39.5
08:45 1017 30.03 846 24.98 7.1 44.7 82 4.2 39.6
08:50 1017 30.03 846 24.98 6.8 44.3 82 4 39.1
08:55 1017 30.03 846 24.98 6.9 44.4 82 4 39.2
09:00 1017 30.03 846 24.98 7.1 44.7 81 4.1 39.3
09:05 1017 30.03 846 24.98 7.4 45.4 79 4.1 39.3
09:10 1017 30.03 846 24.98 8 46.3 77 4.2 39.5
09:15 1017 30.03 846 24.98 8.3 46.9 75 4.1 39.4
09:20 1016 30 846 24.98 8.4 47 75 4.3 39.7
09:25 1016 30 846 24.98 8.3 46.9 75 4.2 39.5
09:30 1017 30.03 846 24.98 8.4 47.2 74 4.2 39.5
09:35 1017 30.03 846 24.98 8.8 47.8 74 4.4 40
09:40 1016 30 846 24.98 8.5 47.3 75 4.4 39.9
09:45 1016 30 846 24.98 9.2 48.5 71 4.2 39.6
09:50 1016 30 845 24.95 10.1 50.2 67 4.3 39.8
09:55 1016 30 845 24.95 10.9 51.6 66 4.7 40.5
10:00 1016 30 845 24.95 11.2 52.2 63 4.5 40.1
10:05 1016 30 845 24.95 11.3 52.3 63 4.5 40.1
10:10 1016 30 845 24.95 11.4 52.6 63 4.7 40.4
10:15 1016 30 845 24.95 11 51.8 65 4.8 40.6
10:20 1016 30 845 24.95 11.1 52 63 4.3 39.8
10:25 1016 30 845 24.95 11.5 52.7 62 4.6 40.3
10:30 1016 30 845 24.95 11.8 53.2 62 4.7 40.5
10:35 1016 30 845 24.95 11.8 53.2 62 4.8 40.6
10:40 1016 30 845 24.95 11.9 53.5 62 4.9 40.8
10:45 1016 30 845 24.95 11.9 53.4 62 4.9 40.8
10:50 1016 30 845 24.95 12 53.7 60 4.7 40.4
10:55 1016 30 845 24.95 12.6 54.7 59 4.8 40.6
11:00 1016 30 845 24.95 12.5 54.5 58 4.6 40.2
11:05 1016 30 845 24.95 13.1 55.5 57 4.8 40.6
11:10 1016 30 845 24.95 13.2 55.7 59 5.4 41.8
11:15 1016 30 845 24.95 12.4 54.3 59 4.6 40.3
11:20 1016 30 845 24.95 12.7 54.9 59 4.9 40.9
11:25 1016 30 845 24.95 12.3 54.2 62 5.3 41.6
11:30 1016 30 845 24.95 12.4 54.4 59 4.6 40.3
11:35 1016 30 845 24.95 13 55.3 57 4.8 40.6
11:40 1016 30 845 24.95 13.5 56.3 55 4.8 40.7
11:45 1015 29.97 845 24.95 13.7 56.6 55 4.8 40.6
11:50 1015 29.97 845 24.95 14.1 57.4 54 4.9 40.9
11:55 1015 29.97 844 24.92 13.7 56.6 57 5.5 41.9
12:00 1015 29.97 844 24.92 12.2 54 61 5 40.9
12:05 1015 29.97 844 24.92 12.7 54.9 58 4.8 40.6
12:10 1015 29.97 844 24.92 12.9 55.2 57 4.6 40.3
12:15 1015 29.97 844 24.92 13.2 55.7 58 5 41.1
12:20 1015 29.97 844 24.92 13.4 56.2 55 4.6 40.3
12:25 1015 29.97 844 24.92 13.5 56.3 56 4.9 40.8
12:30 1015 29.97 844 24.92 14 57.3 54 4.9 40.9
12:35 1015 29.97 844 24.92 14.5 58.1 53 5.1 41.2
12:40 1015 29.97 844 24.92 15 59 50 4.9 40.8
12:45 1015 29.97 844 24.92 14.8 58.7 52 5.1 41.2
12:50 1015 29.97 844 24.92 15.2 59.4 50 4.9 40.8
12:55 1014 29.94 844 24.92 14.7 58.4 50 4.4 39.9
13:00 1014 29.94 844 24.92 15.2 59.4 50 5 41
13:05 1014 29.94 844 24.92 15.3 59.5 51 5.4 41.7
13:10 1014 29.94 843 24.89 14.8 58.7 52 5.3 41.5
13:15 1014 29.94 843 24.89 15.1 59.1 52 5.4 41.6
13:20 1014 29.94 843 24.89 15.1 59.2 52 5.5 41.8
13:25 1014 29.94 843 24.89 15.5 59.9 49 4.9 40.9
13:30 1014 29.94 843 24.89 15.9 60.6 48 5 41
13:35 1014 29.94 843 24.89 15.9 60.7 50 5.6 42
13:40 1014 29.94 843 24.89 15.7 60.3 48 4.9 40.8
13:45 1014 29.94 843 24.89 16 60.9 49 5.5 41.9
13:50 1014 29.94 843 24.89 14.8 58.6 52 5.1 41.1
13:55 1014 29.94 843 24.89 14.9 58.7 52 5.1 41.1
14:00 1014 29.94 843 24.89 14.7 58.5 51 4.8 40.7
14:05 1014 29.94 843 24.89 14.3 57.7 52 4.7 40.4
14:10 1014 29.94 843 24.89 14.7 58.5 51 4.8 40.6
14:15 1014 29.94 843 24.89 15.1 59.1 51 5.1 41.2
14:20 1014 29.94 843 24.89 14.8 58.7 52 5.2 41.3
14:25 1014 29.94 843 24.89 14.4 58 52 4.7 40.4
14:30 1013 29.91 843 24.89 14.8 58.7 53 5.3 41.6
14:35 1013 29.91 843 24.89 15.1 59.1 52 5.3 41.5
14:40 1013 29.91 843 24.89 15.3 59.5 51 5.4 41.7
14:45 1013 29.91 843 24.89 15.2 59.4 51 5.2 41.4
14:50 1013 29.91 843 24.89 14.4 57.8 54 5.2 41.4
14:55 1013 29.91 843 24.89 14.5 58 54 5.3 41.5
15:00 1013 29.91 842 24.86 14.3 57.7 55 5.4 41.8
15:05 1013 29.91 843 24.89 14 57.3 55 5.1 41.1
15:10 1013 29.91 843 24.89 14 57.2 54 4.9 40.8
15:15 1013 29.91 842 24.86 14.1 57.4 53 4.8 40.7
15:20 1013 29.91 842 24.86 14.8 58.7 51 4.9 40.9
15:25 1013 29.91 842 24.86 14.2 57.5 56 5.5 41.9
15:30 1013 29.91 842 24.86 13.8 56.8 58 5.7 42.2
15:35 1013 29.91 842 24.86 13.8 56.9 56 5.4 41.7
15:40 1013 29.91 842 24.86 13.9 57 56 5.2 41.3
15:45 1013 29.91 842 24.86 14.3 57.8 54 5.3 41.6
15:50 1013 29.91 842 24.86 14.7 58.4 54 5.6 42.1
15:55 1013 29.91 842 24.86 15.2 59.4 51 5.3 41.6
16:00 1013 29.91 842 24.86 14.8 58.7 52 5.2 41.4
16:05 1013 29.91 842 24.86 14.4 57.9 55 5.6 42.1
16:10 1013 29.91 842 24.86 14.2 57.5 55 5.4 41.7
16:15 1013 29.91 842 24.86 14 57.2 56 5.4 41.7
16:20 1013 29.91 842 24.86 13.7 56.6 56 5.3 41.5
16:25 1013 29.91 842 24.86 13.8 56.8 56 5.4 41.6
16:30 1013 29.91 842 24.86 13.6 56.5 57 5.4 41.7
16:35 1013 29.91 842 24.86 13.7 56.6 59 6 42.7
16:40 1013 29.91 842 24.86 13.5 56.2 60 5.9 42.6
16:45 1013 29.91 842 24.86 13.5 56.4 60 6.1 42.9
16:50 1013 29.91 842 24.86 13.7 56.7 61 6.4 43.5
16:55 1013 29.91 842 24.86 13.8 56.9 60 6.3 43.3
17:00 1013 29.91 842 24.86 13.6 56.5 61 6.3 43.3
17:05 1013 29.91 842 24.86 13.9 57 60 6.4 43.6
17:10 1013 29.91 842 24.86 13.8 56.8 61 6.4 43.5
17:15 1013 29.91 842 24.86 13.7 56.7 61 6.5 43.7
17:20 1013 29.91 842 24.86 13.7 56.6 62 6.7 44
17:25 1013 29.91 842 24.86 13.6 56.4 63 6.7 44.1
17:30 1013 29.91 842 24.86 13.3 55.9 64 6.6 43.9
17:35 1013 29.91 842 24.86 13.1 55.6 64 6.6 43.8
17:40 1013 29.91 842 24.86 12.9 55.2 65 6.5 43.6
17:45 1013 29.91 842 24.86 12.7 54.9 64 6.1 43.1
17:50 1013 29.91 842 24.86 12.5 54.5 64 6 42.8
17:55 1013 29.91 842 24.86 12.4 54.4 65 6 42.9
18:00 1013 29.91 842 24.86 12.4 54.3 65 6 42.8
18:05 1013 29.91 842 24.86 12.4 54.2 66 6.1 43.1
18:10 1013 29.91 842 24.86 12.2 54 66 6.1 43
18:15 1013 29.91 842 24.86 12.1 53.7 66 6.1 42.9
18:20 1013 29.91 842 24.86 12 53.5 66 5.9 42.6
18:25 1013 29.91 842 24.86 11.9 53.4 66 5.8 42.5
18:30 1013 29.91 842 24.86 11.8 53.2 68 6 42.9
18:35 1013 29.91 842 24.86 11.6 52.8 67 5.8 42.4
18:40 1013 29.91 842 24.86 11.5 52.6 68 5.9 42.6
18:45 1013 29.91 842 24.86 11.5 52.6 64 5 41
18:50 1013 29.91 842 24.86 11.6 52.8 62 4.6 40.3
18:55 1013 29.91 842 24.86 11.8 53.2 61 4.7 40.4
19:00 1013 29.91 842 24.86 11.8 53.2 64 5.2 41.4
19:05 1013 29.91 842 24.86 11.6 52.9 66 5.5 41.9
19:10 1013 29.91 842 24.86 11.4 52.5 66 5.3 41.5
19:15 1013 29.91 842 24.86 11.3 52.3 66 5.2 41.3
19:20 1013 29.91 842 24.86 11.1 52 66 5.1 41.3
19:25 1013 29.91 842 24.86 11 51.8 67 5.2 41.3
19:30 1013 29.91 842 24.86 10.9 51.6 68 5.3 41.5
19:35 1013 29.91 842 24.86 10.8 51.4 68 5.1 41.2
19:40 1013 29.91 842 24.86 10.7 51.3 67 4.9 40.8
19:45 1013 29.91 842 24.86 10.7 51.2 67 4.9 40.8
19:50 1013 29.91 842 24.86 10.6 51.1 68 4.9 40.8
19:55 1013 29.91 842 24.86 10.6 51.1 67 4.8 40.6
20:00 1013 29.91 842 24.86 10.5 50.9 68 4.8 40.7
20:05 1013 29.91 842 24.86 10.5 50.8 68 4.8 40.6
20:10 1013 29.91 842 24.86 10.5 50.8 68 4.8 40.6
20:15 1013 29.91 842 24.86 10.5 50.9 67 4.6 40.3
20:20 1012 29.88 842 24.86 10.5 50.9 67 4.7 40.5
20:25 1012 29.88 842 24.86 10.5 50.9 67 4.6 40.2
20:30 1012 29.88 842 24.86 10.5 50.9 66 4.4 40
20:35 1012 29.88 842 24.86 10.4 50.8 67 4.5 40.2
20:40 1012 29.88 842 24.86 10.4 50.6 68 4.7 40.5
20:45 1012 29.88 842 24.86 10.2 50.3 69 4.7 40.4
20:50 1012 29.88 842 24.86 10.1 50.2 69 4.8 40.6
20:55 1012 29.88 842 24.86 9.8 49.6 71 4.7 40.5
21:00 1012 29.88 841 24.83 9.7 49.4 70 4.6 40.3
21:05 1012 29.88 841 24.83 9.7 49.4 71 4.7 40.5
21:10 1012 29.88 841 24.83 9.5 49.1 72 4.8 40.7
21:15 1012 29.88 841 24.83 9.4 48.9 72 4.6 40.2
21:20 1012 29.88 841 24.83 9.4 49 71 4.5 40.1
21:25 1012 29.88 841 24.83 9.5 49 71 4.6 40.2
21:30 1012 29.88 841 24.83 9.4 48.9 72 4.6 40.4
21:35 1012 29.88 841 24.83 9.3 48.8 72 4.5 40.2
21:40 1012 29.88 841 24.83 9.2 48.5 72 4.4 39.9
21:45 1012 29.88 841 24.83 9 48.3 73 4.4 40
21:50 1012 29.88 841 24.83 8.9 48 74 4.5 40
21:55 1012 29.88 841 24.83 8.8 47.9 74 4.4 40
22:00 1012 29.88 841 24.83 9 48.2 73 4.5 40
22:05 1012 29.88 841 24.83 9 48.2 73 4.4 40
22:10 1012 29.88 841 24.83 8.9 48.1 72 4.2 39.5
22:15 1012 29.88 841 24.83 9.1 48.3 72 4.4 39.9
22:20 1012 29.88 841 24.83 9.1 48.4 72 4.3 39.7
22:25 1012 29.88 841 24.83 9.2 48.6 70 4.1 39.5
22:30 1012 29.88 841 24.83 9.1 48.4 72 4.4 39.9
22:35 1012 29.88 841 24.83 8.7 47.7 75 4.6 40.3
22:40 1012 29.88 841 24.83 8.3 46.9 76 4.3 39.7
22:45 1012 29.88 841 24.83 8.4 47 74 4 39.3
22:50 1012 29.88 841 24.83 8.6 47.4 72 3.8 38.8
22:55 1012 29.88 841 24.83 8.9 47.9 71 4 39.2
23:00 1012 29.88 841 24.83 9 48.1 72 4.2 39.6
23:05 1012 29.88 841 24.83 9 48.1 74 4.6 40.3
23:10 1012 29.88 841 24.83 8.9 48 73 4.3 39.8
23:15 1012 29.88 842 24.86 8.8 47.8 75 4.6 40.3
23:20 1012 29.88 842 24.86 8.6 47.4 76 4.6 40.2
23:25 1012 29.88 842 24.86 8.4 47.1 77 4.6 40.2
23:30 1012 29.88 842 24.86 8.4 47.1 76 4.5 40
23:35 1013 29.91 842 24.86 8.4 47.1 76 4.5 40.1
23:40 1013 29.91 842 24.86 8.5 47.2 76 4.5 40.1
23:45 1013 29.91 842 24.86 8.5 47.4 76 4.5 40.1
23:50 1013 29.91 842 24.86 8.7 47.6 75 4.6 40.2
23:55 1013 29.91 842 24.86 8.8 47.9 77 5 41
24:00 1013 29.91 842 24.86 8.7 47.7 78 5 41.1